createdAt,value
2023-01-29T00:00:14.507Z,28.63
2023-01-29T00:08:02.923Z,28.77
2023-01-29T00:10:20.921Z,28.40
2023-01-29T00:10:30.576Z,27.60
2023-01-29T00:12:58.225Z,26.70
2023-01-29T00:15:27.514Z,28.67
2023-01-29T00:17:55.350Z,27.30
2023-01-29T00:20:23.045Z,26.60
2023-01-29T00:22:50.668Z,26.17
2023-01-29T00:25:18.451Z,27.97
2023-01-29T00:27:46.129Z,28.13
2023-01-29T00:30:19.249Z,27.50
2023-01-29T00:32:48.712Z,27.60
2023-01-29T00:35:17.486Z,27.93
2023-01-29T00:37:45.190Z,27.80
2023-01-29T00:40:16.872Z,28.00
2023-01-29T00:43:03.416Z,29.20
2023-01-29T00:45:31.051Z,29.00
2023-01-29T00:48:00.130Z,27.33
2023-01-29T00:50:27.891Z,26.73
2023-01-29T00:52:55.631Z,27.03
2023-01-29T00:55:23.234Z,28.00
2023-01-29T00:57:50.876Z,29.70
2023-01-29T01:00:19.729Z,28.13
2023-01-29T01:03:05.068Z,28.47
2023-01-29T01:05:35.065Z,28.80
2023-01-29T01:08:02.757Z,29.33
2023-01-29T01:10:30.499Z,27.47
2023-01-29T01:12:59.390Z,28.17
2023-01-29T01:15:28.763Z,28.87
2023-01-29T01:17:57.001Z,29.80
2023-01-29T01:20:24.683Z,29.10
2023-01-29T01:22:57.161Z,28.13
2023-01-29T01:25:29.474Z,29.07
2023-01-29T01:30:26.154Z,28.13
2023-01-29T01:32:53.894Z,29.23
2023-01-29T01:35:21.460Z,29.50
2023-01-29T01:37:50.086Z,29.87
2023-01-29T01:40:20.149Z,29.90
2023-01-29T01:42:49.838Z,28.83
2023-01-29T01:45:22.132Z,29.10
2023-01-29T01:47:53.761Z,29.57
2023-01-29T01:50:22.949Z,30.00
2023-01-29T01:52:52.908Z,29.83
2023-01-29T01:55:24.249Z,29.60
2023-01-29T01:57:53.539Z,31.40
2023-01-29T02:00:21.855Z,30.33
2023-01-29T02:03:07.058Z,27.00
2023-01-29T02:05:53.204Z,26.97
2023-01-29T02:08:39.795Z,27.77
2023-01-29T02:11:08.734Z,28.03
2023-01-29T02:13:36.481Z,29.10
2023-01-29T02:16:04.190Z,28.87
2023-01-29T02:18:39.374Z,29.47
2023-01-29T02:21:25.327Z,29.37
2023-01-29T02:24:15.033Z,30.67
2023-01-29T02:26:51.204Z,31.50
2023-01-29T02:29:26.870Z,31.27
2023-01-29T02:32:00.240Z,30.30
2023-01-29T02:34:51.839Z,29.80
2023-01-29T02:37:19.432Z,30.57
2023-01-29T02:39:50.149Z,29.13
2023-01-29T02:42:19.902Z,30.27
2023-01-29T02:44:49.849Z,30.63
2023-01-29T02:47:18.739Z,31.60
2023-01-29T02:49:48.154Z,29.80
2023-01-29T02:52:16.971Z,30.53
2023-01-29T02:54:45.945Z,29.30
2023-01-29T02:57:17.425Z,30.10
2023-01-29T02:59:46.658Z,29.33
2023-01-29T03:02:18.139Z,28.70
2023-01-29T03:04:47.481Z,31.57
2023-01-29T03:07:37.411Z,30.40
2023-01-29T03:10:06.676Z,29.57
2023-01-29T03:12:34.608Z,30.07
2023-01-29T03:15:12.574Z,30.27
2023-01-29T03:17:45.141Z,31.17
2023-01-29T03:20:15.311Z,30.57
2023-01-29T03:22:43.166Z,31.30
2023-01-29T03:25:28.822Z,31.70
2023-01-29T03:28:15.168Z,31.23
2023-01-29T03:31:03.341Z,29.27
2023-01-29T03:33:33.289Z,30.73
2023-01-29T03:36:02.539Z,32.87
2023-01-29T03:38:31.733Z,32.47
2023-01-29T03:41:01.110Z,34.67
2023-01-29T03:43:33.264Z,31.43
2023-01-29T03:46:04.898Z,32.60
2023-01-29T03:48:36.005Z,31.33
2023-01-29T03:51:12.305Z,30.17
2023-01-29T03:53:43.941Z,31.10
2023-01-29T03:56:18.120Z,30.30
2023-01-29T03:58:48.126Z,28.87
2023-01-29T04:01:17.868Z,31.00
2023-01-29T04:03:49.423Z,30.97
2023-01-29T04:06:18.718Z,31.03
2023-01-29T04:08:49.202Z,30.00
2023-01-29T04:11:18.268Z,29.07
2023-01-29T04:13:46.503Z,29.83
2023-01-29T04:16:15.929Z,30.23
2023-01-29T04:18:47.125Z,28.97
2023-01-29T04:21:15.171Z,29.77
2023-01-29T04:23:42.887Z,30.13
2023-01-29T04:26:26.351Z,29.17
2023-01-29T04:29:00.219Z,30.80
2023-01-29T04:31:29.897Z,31.43
2023-01-29T04:34:02.403Z,31.23
2023-01-29T04:36:33.831Z,30.30
2023-01-29T04:39:07.792Z,32.43
2023-01-29T04:41:37.523Z,31.83
2023-01-29T04:44:10.247Z,30.73
2023-01-29T04:46:42.734Z,33.03
2023-01-29T04:49:16.570Z,33.17
2023-01-29T04:51:50.848Z,32.43
2023-01-29T04:54:23.686Z,31.37
2023-01-29T04:56:54.345Z,32.57
2023-01-29T04:59:24.956Z,33.43
2023-01-29T05:01:53.145Z,32.53
2023-01-29T05:04:22.321Z,31.67
2023-01-29T05:06:50.146Z,32.67
2023-01-29T05:09:18.225Z,33.27
2023-01-29T05:11:46.283Z,32.43
2023-01-29T05:14:14.700Z,31.03
2023-01-29T05:16:44.372Z,29.13
2023-01-29T05:19:15.807Z,31.17
2023-01-29T05:21:46.709Z,31.50
2023-01-29T05:24:15.681Z,30.77
2023-01-29T05:27:00.935Z,30.07
2023-01-29T05:29:28.656Z,32.23
2023-01-29T05:31:56.605Z,32.07
2023-01-29T05:34:24.390Z,31.27
2023-01-29T05:36:53.589Z,31.93
2023-01-29T05:39:21.320Z,32.60
2023-01-29T05:41:49.560Z,32.50
2023-01-29T05:44:17.382Z,31.20
2023-01-29T05:46:46.140Z,31.97
2023-01-29T05:49:13.967Z,33.83
2023-01-29T05:51:41.837Z,30.73
2023-01-29T05:54:12.333Z,31.07
2023-01-29T05:56:40.229Z,30.80
2023-01-29T05:59:08.324Z,30.70
2023-01-29T06:01:36.184Z,32.87
2023-01-29T06:06:31.894Z,30.97
2023-01-29T06:08:59.600Z,31.90
2023-01-29T06:11:28.765Z,31.53
2023-01-29T06:13:56.568Z,30.03
2023-01-29T06:16:25.343Z,31.07
2023-01-29T06:18:53.044Z,31.60
2023-01-29T06:21:20.738Z,31.93
2023-01-29T06:23:48.449Z,31.47
2023-01-29T06:26:16.691Z,29.97
2023-01-29T06:28:46.107Z,32.17
2023-01-29T06:31:32.986Z,31.70
2023-01-29T06:34:01.451Z,30.30
2023-01-29T06:36:29.121Z,28.47
2023-01-29T06:38:56.967Z,31.83
2023-01-29T06:41:25.518Z,31.03
2023-01-29T06:43:54.812Z,31.20
2023-01-29T06:46:22.474Z,30.10
2023-01-29T06:48:50.211Z,32.87
2023-01-29T06:51:17.850Z,31.07
2023-01-29T06:53:46.624Z,32.30
2023-01-29T06:56:14.505Z,30.77
2023-01-29T06:58:43.560Z,30.60
2023-01-29T07:01:25.490Z,32.73
2023-01-29T07:04:00.593Z,30.13
2023-01-29T07:06:29.064Z,29.30
2023-01-29T07:08:57.141Z,31.63
2023-01-29T07:11:25.246Z,30.63
2023-01-29T07:13:53.069Z,30.00
2023-01-29T07:16:22.417Z,28.90
2023-01-29T07:18:50.211Z,29.93
2023-01-29T07:21:18.027Z,30.70
2023-01-29T07:23:45.828Z,28.37
2023-01-29T07:26:13.765Z,28.23
2023-01-29T07:28:41.725Z,29.03
2023-01-29T07:31:09.904Z,30.60
2023-01-29T07:33:39.264Z,29.57
2023-01-29T07:36:09.005Z,29.77
2023-01-29T07:38:37.269Z,30.40
2023-01-29T07:41:05.266Z,30.07
2023-01-29T07:43:33.107Z,31.07
2023-01-29T07:46:03.204Z,31.30
2023-01-29T07:48:31.136Z,29.13
2023-01-29T07:51:00.913Z,31.80
2023-01-29T07:53:28.803Z,29.90
2023-01-29T07:55:58.500Z,29.27
2023-01-29T07:58:26.341Z,29.60
2023-01-29T08:00:54.303Z,28.67
2023-01-29T08:03:22.465Z,29.53
2023-01-29T08:05:50.419Z,29.33
2023-01-29T08:08:20.300Z,30.60
2023-01-29T08:10:48.036Z,29.70
2023-01-29T08:13:15.911Z,29.70
2023-01-29T08:15:44.258Z,29.47
2023-01-29T08:18:13.474Z,29.97
2023-01-29T08:20:41.542Z,28.00
2023-01-29T08:23:17.243Z,29.83
2023-01-29T08:25:46.550Z,31.33
2023-01-29T08:28:14.295Z,21.70
2023-01-29T08:30:42.066Z,24.50
2023-01-29T08:33:09.875Z,27.50
2023-01-29T08:35:37.699Z,28.90
2023-01-29T08:38:06.132Z,28.93
2023-01-29T08:40:34.576Z,28.20
2023-01-29T08:43:06.963Z,27.47
2023-01-29T08:45:36.348Z,29.33
2023-01-29T08:48:04.490Z,28.37
2023-01-29T08:50:32.941Z,29.63
2023-01-29T08:53:01.077Z,29.70
2023-01-29T08:55:28.915Z,28.80
2023-01-29T08:57:57.416Z,30.27
2023-01-29T09:00:26.927Z,28.23
2023-01-29T09:02:54.918Z,26.53
2023-01-29T09:05:22.768Z,27.90
2023-01-29T09:07:52.618Z,28.50
2023-01-29T09:10:21.275Z,29.37
2023-01-29T09:12:49.162Z,27.10
2023-01-29T09:15:17.353Z,27.70
2023-01-29T09:17:46.893Z,29.90
2023-01-29T09:20:14.687Z,28.00
2023-01-29T09:22:43.143Z,29.13
2023-01-29T09:25:12.030Z,27.00
2023-01-29T09:27:39.937Z,28.80
2023-01-29T09:30:08.738Z,28.30
2023-01-29T09:32:53.911Z,26.20
2023-01-29T09:35:23.987Z,27.17
2023-01-29T09:37:52.378Z,26.77
2023-01-29T09:40:27.753Z,28.83
2023-01-29T09:42:57.729Z,27.77
2023-01-29T09:45:26.531Z,24.60
2023-01-29T09:47:54.659Z,25.53
2023-01-29T09:50:25.984Z,25.20
2023-01-29T09:52:55.530Z,26.53
2023-01-29T09:55:24.725Z,27.23
2023-01-29T09:57:54.291Z,26.13
2023-01-29T10:00:26.593Z,26.83
2023-01-29T10:03:10.633Z,26.83
2023-01-29T10:05:46.166Z,25.43
2023-01-29T10:08:21.774Z,26.90
2023-01-29T10:10:50.725Z,26.77
2023-01-29T10:13:28.718Z,26.17
2023-01-29T10:16:09.442Z,26.30
2023-01-29T10:18:58.049Z,26.17
2023-01-29T10:21:33.410Z,28.23
2023-01-29T10:24:05.200Z,26.67
2023-01-29T10:26:35.983Z,27.13
2023-01-29T10:29:03.962Z,28.20
2023-01-29T10:31:38.867Z,28.40
2023-01-29T10:34:08.711Z,27.93
2023-01-29T10:36:40.027Z,27.63
2023-01-29T10:39:15.918Z,26.23
2023-01-29T10:41:54.334Z,28.10
2023-01-29T10:44:28.360Z,28.03
2023-01-29T10:47:09.308Z,27.57
2023-01-29T10:49:45.198Z,25.97
2023-01-29T10:52:23.089Z,29.40
2023-01-29T10:54:58.811Z,27.47
2023-01-29T10:57:39.997Z,27.63
2023-01-29T11:00:12.871Z,27.77
2023-01-29T11:02:45.238Z,28.20
2023-01-29T11:05:27.487Z,28.50
2023-01-29T11:08:02.833Z,23.70
2023-01-29T11:10:30.644Z,26.77
2023-01-29T11:12:58.516Z,25.67
2023-01-29T11:15:27.723Z,27.60
2023-01-29T11:18:10.722Z,26.83
2023-01-29T11:20:38.577Z,25.73
2023-01-29T11:23:07.788Z,28.43
2023-01-29T11:25:35.715Z,27.43
2023-01-29T11:28:05.266Z,27.57
2023-01-29T11:30:34.043Z,27.67
2023-01-29T11:33:13.910Z,27.03
2023-01-29T11:35:41.575Z,26.83
2023-01-29T11:38:24.686Z,26.93
2023-01-29T11:40:52.630Z,25.93
2023-01-29T11:43:29.226Z,27.13
2023-01-29T11:45:58.132Z,26.33
2023-01-29T11:48:34.233Z,28.30
2023-01-29T11:51:02.113Z,26.57
2023-01-29T11:53:38.030Z,25.53
2023-01-29T11:56:08.347Z,24.20
2023-01-29T11:58:36.245Z,25.17
2023-01-29T12:01:04.409Z,25.97
2023-01-29T12:03:35.449Z,24.77
2023-01-29T12:06:04.849Z,26.30
2023-01-29T12:08:34.885Z,26.83
2023-01-29T12:11:10.563Z,25.77
2023-01-29T12:13:39.029Z,26.77
2023-01-29T12:16:13.987Z,24.83
2023-01-29T12:18:43.133Z,25.53
2023-01-29T12:21:13.557Z,23.97
2023-01-29T12:23:44.409Z,25.10
2023-01-29T12:26:20.495Z,24.60
2023-01-29T12:28:50.576Z,24.37
2023-01-29T12:31:27.486Z,25.63
2023-01-29T12:34:01.228Z,23.33
2023-01-29T12:36:30.127Z,23.70
2023-01-29T12:38:59.164Z,22.33
2023-01-29T12:41:34.387Z,23.23
2023-01-29T12:44:04.601Z,24.60
2023-01-29T12:46:34.450Z,24.37
2023-01-29T12:49:03.532Z,22.93
2023-01-29T12:51:34.596Z,24.07
2023-01-29T12:54:04.910Z,23.27
2023-01-29T12:56:36.848Z,25.23
2023-01-29T12:59:08.707Z,22.97
2023-01-29T13:01:39.107Z,22.37
2023-01-29T13:04:08.017Z,19.73
2023-01-29T13:09:12.979Z,23.30
2023-01-29T13:11:43.575Z,21.63
2023-01-29T13:14:15.185Z,21.67
2023-01-29T13:16:44.866Z,20.63
2023-01-29T13:19:19.485Z,23.30
2023-01-29T13:21:47.212Z,20.97
2023-01-29T13:24:17.498Z,20.10
2023-01-29T13:26:47.157Z,19.67
2023-01-29T13:29:22.401Z,22.10
2023-01-29T13:31:50.087Z,21.57
2023-01-29T13:34:19.066Z,20.67
2023-01-29T13:36:47.632Z,20.33
2023-01-29T13:39:21.643Z,14.73
2023-01-29T13:41:50.731Z,19.43
2023-01-29T13:44:26.257Z,21.67
2023-01-29T13:46:56.453Z,21.73
2023-01-29T13:49:32.791Z,21.93
2023-01-29T13:52:00.628Z,21.50
2023-01-29T13:54:28.604Z,21.13
2023-01-29T13:57:01.671Z,21.57
2023-01-29T13:59:50.578Z,20.37
2023-01-29T14:02:22.992Z,20.73
2023-01-29T14:04:50.634Z,21.97
2023-01-29T14:07:40.809Z,21.93
2023-01-29T14:10:15.150Z,20.90
2023-01-29T14:12:51.793Z,19.13
2023-01-29T14:15:24.455Z,19.27
2023-01-29T14:18:21.309Z,20.77
2023-01-29T14:21:00.278Z,20.83
2023-01-29T14:23:36.887Z,20.07
2023-01-29T14:26:06.197Z,18.60
2023-01-29T14:28:35.360Z,19.17
2023-01-29T14:31:03.252Z,19.87
2023-01-29T14:33:35.310Z,19.47
2023-01-29T14:36:05.828Z,18.87
2023-01-29T14:38:33.737Z,18.37
2023-01-29T14:41:07.035Z,19.77
2023-01-29T14:43:36.205Z,20.53
2023-01-29T14:46:40.957Z,18.00
2023-01-29T14:49:09.095Z,18.07
2023-01-29T14:51:38.256Z,17.63
2023-01-29T14:54:06.236Z,17.23
2023-01-29T14:56:35.066Z,18.70
2023-01-29T14:59:13.432Z,18.70
2023-01-29T15:01:41.273Z,17.90
2023-01-29T15:04:15.628Z,18.43
2023-01-29T15:06:45.007Z,18.00
2023-01-29T15:09:14.497Z,19.67
2023-01-29T15:11:48.635Z,18.73
2023-01-29T15:14:24.849Z,20.77
2023-01-29T15:17:11.116Z,19.57
2023-01-29T15:19:42.442Z,19.10
2023-01-29T15:22:11.984Z,20.17
2023-01-29T15:24:40.467Z,18.33
2023-01-29T15:27:10.778Z,20.73
2023-01-29T15:29:39.861Z,18.67
2023-01-29T15:32:07.800Z,20.13
2023-01-29T15:34:35.487Z,20.47
2023-01-29T15:37:03.283Z,19.73
2023-01-29T15:39:31.694Z,19.93
2023-01-29T15:42:06.412Z,21.67
2023-01-29T15:44:34.578Z,21.17
2023-01-29T15:47:03.693Z,31.47
2023-01-29T15:49:32.733Z,22.97
2023-01-29T15:52:05.032Z,20.80
2023-01-29T15:54:33.024Z,20.33
2023-01-29T15:57:00.725Z,22.03
2023-01-29T15:59:36.849Z,21.97
2023-01-29T16:04:58.801Z,21.03
2023-01-29T16:07:26.520Z,20.83
2023-01-29T16:09:54.235Z,20.57
2023-01-29T16:12:21.875Z,21.17
2023-01-29T16:14:49.696Z,21.63
2023-01-29T16:17:27.349Z,19.93
2023-01-29T16:20:00.289Z,20.10
2023-01-29T16:22:28.024Z,19.87
2023-01-29T16:24:55.755Z,21.37
2023-01-29T16:27:23.413Z,20.30
2023-01-29T16:29:51.641Z,22.40
2023-01-29T16:32:19.668Z,20.83
2023-01-29T16:34:48.635Z,19.47
2023-01-29T16:37:23.074Z,20.13
2023-01-29T16:39:52.349Z,21.33
2023-01-29T16:42:30.051Z,20.00
2023-01-29T16:44:59.733Z,20.23
2023-01-29T16:47:32.944Z,21.73
2023-01-29T16:50:02.151Z,20.97
2023-01-29T16:52:32.250Z,20.57
2023-01-29T16:55:01.618Z,20.37
2023-01-29T16:57:31.620Z,18.87
2023-01-29T17:00:01.397Z,20.00
2023-01-29T17:02:30.419Z,20.03
2023-01-29T17:04:59.805Z,19.10
2023-01-29T17:07:27.523Z,19.50
2023-01-29T17:09:58.528Z,19.27
2023-01-29T17:12:26.895Z,19.30
2023-01-29T17:14:55.051Z,19.30
2023-01-29T17:17:23.359Z,19.07
2023-01-29T17:19:51.103Z,17.53
2023-01-29T17:22:18.768Z,16.83
2023-01-29T17:24:46.704Z,17.87
2023-01-29T17:27:18.156Z,17.60
2023-01-29T17:29:46.399Z,18.40
2023-01-29T17:32:14.324Z,16.27
2023-01-29T17:34:42.416Z,14.43
2023-01-29T17:37:12.791Z,16.23
2023-01-29T17:39:42.737Z,15.57
2023-01-29T17:42:13.628Z,15.63
2023-01-29T17:44:43.184Z,16.77
2023-01-29T17:47:13.774Z,15.53
2023-01-29T17:49:41.620Z,16.50
2023-01-29T17:52:09.702Z,17.30
2023-01-29T17:54:37.712Z,15.97
2023-01-29T17:57:05.610Z,14.37
2023-01-29T17:59:34.834Z,15.23
2023-01-29T18:02:08.945Z,14.10
2023-01-29T18:04:56.925Z,14.80
2023-01-29T18:07:24.762Z,15.40
2023-01-29T18:09:52.579Z,14.77
2023-01-29T18:12:20.388Z,14.97
2023-01-29T18:14:48.257Z,15.80
2023-01-29T18:17:22.320Z,14.03
2023-01-29T18:19:50.302Z,14.13
2023-01-29T18:22:18.283Z,15.87
2023-01-29T18:24:46.078Z,13.37
2023-01-29T18:27:14.005Z,14.87
2023-01-29T18:29:41.814Z,14.43
2023-01-29T18:32:10.117Z,15.47
2023-01-29T18:34:41.189Z,14.53
2023-01-29T18:37:10.926Z,14.17
2023-01-29T18:39:39.990Z,14.27
2023-01-29T18:42:07.943Z,14.50
2023-01-29T18:44:35.876Z,16.70
2023-01-29T18:47:05.302Z,14.10
2023-01-29T18:49:33.155Z,14.57
2023-01-29T18:52:03.511Z,15.53
2023-01-29T18:54:31.420Z,15.07
2023-01-29T18:57:08.669Z,16.00
2023-01-29T18:59:41.948Z,17.27
2023-01-29T19:02:12.113Z,16.97
2023-01-29T19:04:39.972Z,15.67
2023-01-29T19:09:45.393Z,16.57
2023-01-29T19:12:13.936Z,16.30
2023-01-29T19:14:42.129Z,16.50
2023-01-29T19:17:10.168Z,15.70
2023-01-29T19:19:38.149Z,14.87
2023-01-29T19:22:06.161Z,15.60
2023-01-29T19:24:38.777Z,13.77
2023-01-29T19:27:08.087Z,14.83
2023-01-29T19:29:36.067Z,14.30
2023-01-29T19:32:03.954Z,14.03
2023-01-29T19:34:31.818Z,16.13
2023-01-29T19:37:00.177Z,15.03
2023-01-29T19:39:33.657Z,15.43
2023-01-29T19:42:03.976Z,16.63
2023-01-29T19:44:34.928Z,16.23
2023-01-29T19:47:02.920Z,16.60
2023-01-29T19:49:31.063Z,16.43
2023-01-29T19:52:00.971Z,16.27
2023-01-29T19:54:29.604Z,15.80
2023-01-29T19:56:57.582Z,17.20
2023-01-29T19:59:25.692Z,16.43
2023-01-29T20:01:56.410Z,15.63
2023-01-29T20:04:24.352Z,15.80
2023-01-29T20:06:52.023Z,15.53
2023-01-29T20:09:19.657Z,23.90
2023-01-29T20:11:47.426Z,17.73
2023-01-29T20:14:15.152Z,18.10
2023-01-29T20:16:43.006Z,16.33
2023-01-29T20:19:14.474Z,15.93
2023-01-29T20:21:46.098Z,16.90
2023-01-29T20:24:14.025Z,17.40
2023-01-29T20:26:41.797Z,14.67
2023-01-29T20:29:09.456Z,16.60
2023-01-29T20:31:37.373Z,17.43
2023-01-29T20:34:05.029Z,17.90
2023-01-29T20:36:34.115Z,16.33
2023-01-29T20:39:01.845Z,16.60
2023-01-29T20:41:29.590Z,17.23
2023-01-29T20:43:57.241Z,16.27
2023-01-29T20:46:25.002Z,16.70
2023-01-29T20:48:54.059Z,16.07
2023-01-29T20:51:21.988Z,17.57
2023-01-29T20:53:51.164Z,18.10
2023-01-29T20:56:24.570Z,16.17
2023-01-29T20:59:04.315Z,17.93
2023-01-29T21:01:32.088Z,17.67
2023-01-29T21:03:59.922Z,17.77
2023-01-29T21:06:29.462Z,16.37
2023-01-29T21:08:58.585Z,17.77
2023-01-29T21:11:27.039Z,14.23
2023-01-29T21:13:57.659Z,17.97
2023-01-29T21:16:26.044Z,17.67
2023-01-29T21:18:56.686Z,18.90
2023-01-29T21:21:24.386Z,19.57
2023-01-29T21:23:52.110Z,17.20
2023-01-29T21:26:21.523Z,17.27
2023-01-29T21:28:49.215Z,18.47
2023-01-29T21:31:17.641Z,20.70
2023-01-29T21:33:45.610Z,18.20
2023-01-29T21:36:13.359Z,18.87
2023-01-29T21:38:41.273Z,19.50
2023-01-29T21:41:12.273Z,18.67
2023-01-29T21:43:40.442Z,18.00
2023-01-29T21:46:11.533Z,19.27
2023-01-29T21:48:39.722Z,19.27
2023-01-29T21:51:07.611Z,18.13
2023-01-29T21:53:36.626Z,18.53
2023-01-29T21:56:05.004Z,18.70
2023-01-29T21:58:32.783Z,18.13
2023-01-29T22:01:18.571Z,18.93
2023-01-29T22:03:49.517Z,17.97
2023-01-29T22:06:17.338Z,18.73
2023-01-29T22:08:45.123Z,18.23
2023-01-29T22:11:12.978Z,18.43
2023-01-29T22:13:40.754Z,18.27
2023-01-29T22:16:09.880Z,16.97
2023-01-29T22:18:38.716Z,18.67
2023-01-29T22:21:06.723Z,18.90
2023-01-29T22:23:34.432Z,17.87
2023-01-29T22:26:05.640Z,17.93
2023-01-29T22:28:33.287Z,16.57
2023-01-29T22:31:03.870Z,18.87
2023-01-29T22:33:33.425Z,18.53
2023-01-29T22:36:01.249Z,18.33
2023-01-29T22:38:28.923Z,18.73
2023-01-29T22:40:57.790Z,18.10
2023-01-29T22:43:25.934Z,17.70
2023-01-29T22:45:53.728Z,18.30
2023-01-29T22:48:23.672Z,18.27
2023-01-29T22:51:09.819Z,18.27
2023-01-29T22:53:38.177Z,17.30
2023-01-29T22:56:07.478Z,17.67
2023-01-29T22:58:35.209Z,19.60
2023-01-29T23:01:03.031Z,19.40
2023-01-29T23:03:30.794Z,18.50
2023-01-29T23:05:59.874Z,19.47
2023-01-29T23:08:27.642Z,18.60
2023-01-29T23:10:55.365Z,18.00
2023-01-29T23:13:23.154Z,18.13
2023-01-29T23:15:59.519Z,17.67
2023-01-29T23:18:27.278Z,19.73
2023-01-29T23:20:59.084Z,19.90
2023-01-29T23:23:27.060Z,18.63
2023-01-29T23:26:15.531Z,19.83
2023-01-29T23:28:43.533Z,19.10
2023-01-29T23:31:11.403Z,19.73
2023-01-29T23:33:39.207Z,18.53
2023-01-29T23:36:09.020Z,19.27
2023-01-29T23:38:36.892Z,18.07
2023-01-29T23:41:04.681Z,18.40
2023-01-29T23:43:32.425Z,20.03
2023-01-29T23:46:00.236Z,20.20
2023-01-29T23:48:27.879Z,19.27
2023-01-29T23:50:55.755Z,17.37
2023-01-29T23:53:24.908Z,18.87
2023-01-29T23:55:59.259Z,19.87
2023-01-29T23:58:26.996Z,18.73
